createdAt,value
2023-03-16T00:02:29.877Z,8.23
2023-03-16T00:07:33.199Z,8.13
2023-03-16T00:12:35.065Z,7.78
2023-03-16T00:17:37.474Z,6.70
2023-03-16T00:22:39.334Z,7.78
2023-03-16T00:27:41.953Z,7.95
2023-03-16T00:32:43.985Z,8.40
2023-03-16T00:37:46.549Z,7.28
2023-03-16T00:42:48.402Z,8.02
2023-03-16T00:47:50.314Z,8.23
2023-03-16T00:52:54.013Z,7.07
2023-03-16T00:57:55.976Z,6.82
2023-03-16T01:02:57.873Z,7.72
2023-03-16T01:08:02.874Z,7.28
2023-03-16T01:13:04.690Z,8.02
2023-03-16T01:18:06.794Z,7.57
2023-03-16T01:23:08.636Z,6.80
2023-03-16T01:28:10.477Z,6.65
2023-03-16T01:33:12.940Z,5.97
2023-03-16T01:38:15.621Z,6.82
2023-03-16T01:43:19.622Z,6.20
2023-03-16T01:48:25.125Z,6.95
2023-03-16T01:53:27.093Z,6.68
2023-03-16T01:58:31.616Z,8.25
2023-03-16T02:03:36.891Z,7.38
2023-03-16T02:08:40.560Z,9.25
2023-03-16T02:13:43.617Z,8.27
2023-03-16T02:18:47.458Z,8.80
2023-03-16T02:23:51.693Z,10.50
2023-03-16T02:35:15.397Z,9.20
2023-03-16T02:40:17.785Z,9.52
2023-03-16T02:45:19.871Z,9.85
2023-03-16T02:50:21.609Z,10.18
2023-03-16T02:55:23.415Z,8.77
2023-03-16T03:00:26.570Z,8.70
2023-03-16T03:05:28.574Z,9.50
2023-03-16T03:10:31.203Z,9.88
2023-03-16T03:15:34.036Z,9.25
2023-03-16T03:20:35.843Z,12.20
2023-03-16T03:25:37.989Z,9.50
2023-03-16T03:30:40.397Z,10.10
2023-03-16T03:35:42.421Z,9.75
2023-03-16T03:40:44.464Z,9.68
2023-03-16T03:45:46.399Z,9.52
2023-03-16T03:50:48.488Z,10.32
2023-03-16T03:55:50.326Z,9.88
2023-03-16T04:00:52.421Z,9.02
2023-03-16T04:05:54.237Z,8.50
2023-03-16T04:10:56.053Z,9.95
2023-03-16T04:15:59.229Z,11.63
2023-03-16T04:21:00.948Z,13.25
2023-03-16T04:26:04.199Z,10.90
2023-03-16T04:31:09.012Z,11.15
2023-03-16T04:36:12.077Z,10.77
2023-03-16T04:41:14.119Z,10.32
2023-03-16T04:46:16.360Z,9.63
2023-03-16T04:51:18.573Z,11.13
2023-03-16T04:56:20.777Z,10.77
2023-03-16T05:01:23.707Z,11.77
2023-03-16T05:06:25.828Z,10.10
2023-03-16T05:11:28.416Z,8.63
2023-03-16T05:16:31.304Z,8.65
2023-03-16T05:21:34.654Z,9.38
2023-03-16T05:26:36.753Z,9.45
2023-03-16T05:31:38.693Z,9.30
2023-03-16T05:36:40.771Z,9.77
2023-03-16T05:41:42.749Z,9.68
2023-03-16T05:46:45.775Z,12.65
2023-03-16T05:51:49.961Z,9.20
2023-03-16T05:56:52.026Z,8.55
2023-03-16T06:01:54.151Z,9.73
2023-03-16T06:06:56.093Z,10.57
2023-03-16T06:11:57.871Z,10.43
2023-03-16T06:16:59.658Z,10.00
2023-03-16T06:22:01.767Z,10.30
2023-03-16T06:27:04.312Z,9.10
2023-03-16T06:32:06.178Z,9.32
2023-03-16T06:37:08.129Z,13.10
2023-03-16T06:42:10.126Z,8.98
2023-03-16T06:47:12.328Z,9.80
2023-03-16T06:52:15.010Z,10.02
2023-03-16T06:57:16.900Z,11.00
2023-03-16T07:02:19.936Z,11.65
2023-03-16T07:07:21.930Z,11.70
2023-03-16T07:12:23.797Z,11.30
2023-03-16T07:17:25.943Z,12.15
2023-03-16T07:22:27.699Z,12.70
2023-03-16T07:27:29.914Z,11.27
2023-03-16T07:32:32.717Z,11.23
2023-03-16T07:37:35.187Z,9.88
2023-03-16T07:42:37.932Z,10.02
2023-03-16T07:47:39.919Z,9.15
2023-03-16T07:52:43.922Z,9.45
2023-03-16T07:57:48.033Z,9.68
2023-03-16T08:02:54.745Z,10.63
2023-03-16T08:07:57.567Z,9.73
2023-03-16T08:12:59.615Z,9.55
2023-03-16T08:18:07.459Z,10.45
2023-03-16T08:23:09.836Z,9.30
2023-03-16T08:28:13.158Z,8.88
2023-03-16T08:33:18.483Z,10.00
2023-03-16T08:38:20.309Z,8.95
2023-03-16T08:43:22.118Z,8.40
2023-03-16T08:48:26.229Z,8.98
2023-03-16T08:53:28.330Z,7.57
2023-03-16T08:58:32.538Z,7.43
2023-03-16T09:03:35.444Z,7.32
2023-03-16T09:08:39.165Z,7.75
2023-03-16T09:13:41.548Z,7.25
2023-03-16T09:18:43.776Z,6.57
2023-03-16T09:23:45.726Z,6.00
2023-03-16T09:28:48.066Z,5.68
2023-03-16T09:33:49.989Z,5.00
2023-03-16T09:38:52.105Z,5.38
2023-03-16T09:44:22.058Z,5.07
2023-03-16T09:49:27.990Z,4.15
2023-03-16T09:54:42.535Z,5.07
2023-03-16T09:59:45.568Z,5.32
2023-03-16T10:05:09.658Z,4.82
2023-03-16T10:10:11.687Z,4.13
2023-03-16T10:15:35.865Z,4.50
2023-03-16T10:20:38.150Z,3.60
2023-03-16T10:25:51.732Z,4.03
2023-03-16T10:30:56.426Z,3.47
2023-03-16T10:35:58.074Z,3.22
2023-03-16T10:41:00.822Z,3.50
2023-03-16T10:46:02.854Z,3.03
2023-03-16T10:51:12.203Z,3.78
2023-03-16T10:56:22.973Z,2.70
2023-03-16T11:01:27.286Z,3.05
2023-03-16T11:06:32.249Z,3.03
2023-03-16T11:11:35.386Z,3.60
2023-03-16T11:16:37.285Z,2.88
2023-03-16T11:22:20.488Z,2.47
2023-03-16T11:27:33.445Z,2.45
2023-03-16T11:32:38.130Z,3.25
2023-03-16T11:37:48.778Z,2.67
2023-03-16T11:43:14.609Z,2.08
2023-03-16T11:48:21.667Z,2.85
2023-03-16T11:53:23.555Z,2.10
2023-03-16T11:58:52.991Z,3.40
2023-03-16T12:04:10.397Z,2.58
2023-03-16T12:09:37.934Z,2.30
2023-03-16T12:14:45.314Z,2.05
2023-03-16T12:19:53.920Z,2.40
2023-03-16T12:24:55.817Z,2.25
2023-03-16T12:30:28.125Z,1.80
2023-03-16T12:35:43.862Z,2.38
2023-03-16T12:40:55.020Z,1.80
2023-03-16T12:46:07.821Z,2.25
2023-03-16T12:51:10.747Z,2.13
2023-03-16T12:56:19.281Z,1.48
2023-03-16T13:01:28.518Z,1.73
2023-03-16T13:06:36.670Z,1.60
2023-03-16T13:11:50.458Z,1.58
2023-03-16T13:17:03.355Z,1.40
2023-03-16T13:22:27.454Z,1.63
2023-03-16T13:27:37.143Z,1.80
2023-03-16T13:32:40.101Z,1.48
2023-03-16T13:37:43.789Z,1.63
2023-03-16T13:42:49.791Z,1.58
2023-03-16T13:48:25.816Z,1.30
2023-03-16T13:53:30.170Z,1.42
2023-03-16T13:58:35.834Z,1.52
2023-03-16T14:03:42.556Z,1.45
2023-03-16T14:14:50.671Z,1.63
2023-03-16T14:19:58.887Z,1.45
2023-03-16T14:25:02.035Z,1.63
2023-03-16T14:30:16.090Z,1.92
2023-03-16T14:35:22.229Z,1.40
2023-03-16T14:40:30.952Z,2.20
2023-03-16T14:45:36.257Z,2.33
2023-03-16T14:50:38.422Z,2.05
2023-03-16T14:55:40.767Z,2.35
2023-03-16T15:00:52.595Z,2.70
2023-03-16T15:05:56.157Z,2.55
2023-03-16T15:11:06.050Z,2.10
2023-03-16T15:16:12.740Z,2.33
2023-03-16T15:21:24.607Z,2.65
2023-03-16T15:26:29.452Z,2.67
2023-03-16T15:31:32.046Z,3.03
2023-03-16T15:36:34.168Z,3.17
2023-03-16T15:41:47.047Z,2.65
2023-03-16T15:46:49.637Z,2.45
2023-03-16T15:51:52.392Z,2.40
2023-03-16T15:56:56.715Z,3.03
2023-03-16T16:01:58.620Z,2.45
2023-03-16T16:07:05.780Z,3.92
2023-03-16T16:12:14.214Z,2.53
2023-03-16T16:17:21.134Z,2.78
2023-03-16T16:22:25.589Z,3.17
2023-03-16T16:27:28.071Z,2.40
2023-03-16T16:32:50.489Z,2.50
2023-03-16T16:37:53.162Z,2.90
2023-03-16T16:43:02.233Z,4.97
2023-03-16T16:48:16.609Z,3.40
2023-03-16T16:53:23.843Z,2.80
2023-03-16T16:58:29.188Z,3.45
2023-03-16T17:03:32.246Z,2.92
2023-03-16T17:19:40.489Z,2.25
2023-03-16T17:30:28.718Z,2.90
2023-03-16T17:35:31.626Z,2.88
2023-03-16T17:40:37.264Z,2.70
2023-03-16T17:45:39.310Z,2.55
2023-03-16T17:50:43.098Z,2.38
2023-03-16T17:55:47.143Z,2.08
2023-03-16T18:00:54.268Z,2.90
2023-03-16T18:05:56.471Z,2.40
2023-03-16T18:11:04.870Z,2.42
2023-03-16T18:16:08.081Z,2.80
2023-03-16T18:21:21.955Z,2.40
2023-03-16T18:26:24.935Z,2.63
2023-03-16T18:31:29.183Z,2.50
2023-03-16T18:36:33.537Z,2.40
2023-03-16T18:41:36.232Z,2.55
2023-03-16T18:46:39.461Z,2.72
2023-03-16T18:51:43.560Z,3.40
2023-03-16T18:56:46.835Z,2.95
2023-03-16T19:01:49.438Z,2.83
2023-03-16T19:06:54.201Z,3.08
2023-03-16T19:11:56.573Z,3.30
2023-03-16T19:16:59.022Z,2.80
2023-03-16T19:22:14.291Z,3.03
2023-03-16T19:27:25.706Z,3.25
2023-03-16T19:37:30.532Z,2.95
2023-03-16T19:42:37.127Z,2.90
2023-03-16T19:47:39.234Z,8.45
2023-03-16T19:52:42.066Z,3.13
2023-03-16T19:57:45.681Z,3.30
2023-03-16T20:02:49.452Z,3.95
2023-03-16T20:07:57.568Z,3.90
2023-03-16T20:13:01.946Z,2.92
2023-03-16T20:18:07.187Z,3.90
2023-03-16T20:23:27.169Z,3.08
2023-03-16T20:28:36.340Z,3.78
2023-03-16T20:33:38.417Z,3.03
2023-03-16T20:38:44.725Z,5.50
2023-03-16T20:43:47.025Z,3.80
2023-03-16T20:48:50.093Z,4.30
2023-03-16T20:53:55.130Z,3.33
2023-03-16T20:58:57.317Z,4.05
2023-03-16T21:04:02.400Z,5.72
2023-03-16T21:09:04.682Z,8.93
2023-03-16T21:14:13.618Z,8.05
2023-03-16T21:19:18.921Z,4.50
2023-03-16T21:24:21.642Z,6.10
2023-03-16T21:29:23.989Z,7.97
2023-03-16T21:34:33.958Z,8.20
2023-03-16T21:39:36.245Z,6.72
2023-03-16T21:44:41.303Z,6.93
2023-03-16T21:49:44.104Z,6.53
2023-03-16T21:54:47.587Z,7.05
2023-03-16T21:59:50.770Z,6.05
2023-03-16T22:04:53.543Z,5.25
2023-03-16T22:09:59.009Z,5.05
2023-03-16T22:15:01.237Z,4.90
2023-03-16T22:20:04.349Z,5.13
2023-03-16T22:25:15.268Z,5.32
2023-03-16T22:30:22.593Z,5.15
2023-03-16T22:35:35.670Z,4.80
2023-03-16T22:40:39.643Z,4.10
2023-03-16T22:45:45.006Z,5.05
2023-03-16T22:50:48.039Z,5.68
2023-03-16T22:55:51.596Z,6.78
2023-03-16T23:00:55.248Z,7.90
2023-03-16T23:05:58.385Z,9.10
2023-03-16T23:11:00.460Z,7.95
2023-03-16T23:16:02.843Z,6.00
2023-03-16T23:21:05.136Z,5.57
2023-03-16T23:26:18.314Z,5.97
2023-03-16T23:31:22.525Z,6.60
2023-03-16T23:36:26.141Z,5.38
2023-03-16T23:41:28.242Z,5.85
2023-03-16T23:46:30.758Z,7.65
2023-03-16T23:51:37.359Z,8.07
2023-03-16T23:56:42.199Z,6.90
